www.seifhennersdorf-wetter.de
Wetterdaten: aktuell Sonntag, 20.10.2019 04:10
Datum Zeit Temp. A. Bodtemp.5cm Gewchsh. Temp. Wind Windchill X Diff Temp. Feuchte A. Feuchte 2 % Gewchsh. Sonnenschein Luftdruck Regen Wind Richtung Richtung Sonnenschein Taupunkt Windchill Windben
20.10.2019 04:10 9,6 C 8,5 C 0,0 C 9,6 C 9,2 C 16,0 C 78 % 80 % 0 % 0 % 1012,6 hPa 0,0 l/m 0,0 km/h (0 Bft) O-SO 112 0 min 6,0 C 9,6 C 0,0 km/h (0 Bft)
20.10.2019 03:10 10,5 C 10,4 C 0,0 C 10,7 C 10,6 C 15,3 C 78 % 78 % 0 % 0 % 1012,6 hPa 0,0 l/m 0,6 km/h (0 Bft) SO 135 0 min 6,8 C 10,5 C 0,0 km/h (0 Bft)
20.10.2019 02:10 10,8 C 9,9 C 0,0 C 10,7 C 10,0 C 15,0 C 76 % 77 % 0 % 0 % 1013,1 hPa 0,0 l/m 3,7 km/h (1 Bft) SO 135 0 min 6,7 C 10,8 C 4,6 km/h (1 Bft)
20.10.2019 01:10 11,6 C 10,6 C 0,0 C 11,8 C 11,7 C 14,4 C 78 % 77 % 0 % 0 % 1013,1 hPa 0,0 l/m 6,0 km/h (2 Bft) S-SW 202 0 min 7,9 C 11,6 C 8,9 km/h (2 Bft)
20.10.2019 00:10 11,1 C 9,2 C 0,0 C 11,0 C 10,5 C 14,9 C 77 % 77 % 0 % 0 % 1012,9 hPa 0,0 l/m 4,6 km/h (1 Bft) S-SW 202 0 min 7,2 C 11,1 C 5,4 km/h (2 Bft)
19.10.2019 23:10 11,0 C 9,2 C 0,0 C 10,8 C 10,1 C 15,2 C 76 % 77 % 0 % 0 % 1012,7 hPa 0,0 l/m 5,2 km/h (1 Bft) S 180 0 min 6,9 C 11,0 C 8,3 km/h (2 Bft)
19.10.2019 22:10 11,6 C 10,2 C 0,0 C 11,5 C 11,0 C 14,6 C 76 % 76 % 0 % 0 % 1012,4 hPa 0,0 l/m 4,6 km/h (1 Bft) O-SO 112 0 min 7,5 C 11,6 C 2,9 km/h (1 Bft)
19.10.2019 21:10 11,8 C 10,6 C 0,0 C 11,6 C 10,7 C 14,2 C 74 % 74 % 0 % 0 % 1012,4 hPa 0,0 l/m 7,1 km/h (2 Bft) O 90 0 min 7,3 C 11,8 C 8,5 km/h (2 Bft)
19.10.2019 20:10 12,4 C 10,6 C 0,0 C 12,3 C 11,7 C 13,2 C 72 % 71 % 0 % 0 % 1012,7 hPa 0,0 l/m 3,1 km/h (1 Bft) S-SO 157 0 min 7,5 C 12,4 C 11,6 km/h (2 Bft)
19.10.2019 19:10 13,0 C 11,7 C 0,0 C 13,1 C 12,9 C 12,8 C 69 % 68 % 0 % 0 % 1012,9 hPa 0,0 l/m 4,2 km/h (1 Bft) S-SO 157 0 min 7,4 C 13,0 C 5,0 km/h (1 Bft)
19.10.2019 18:10 13,4 C 11,9 C 0,0 C 13,4 C 13,1 C 12,0 C 67 % 66 % 0 % 0 % 1012,8 hPa 0,0 l/m 7,5 km/h (2 Bft) N-NO 22 40 min 7,4 C 13,4 C 19,5 km/h (3 Bft)
19.10.2019 17:10 14,3 C 13,1 C 0,0 C 14,4 C 14,3 C 10,9 C 63 % 60 % 0 % 100 % 1012,8 hPa 0,0 l/m 5,4 km/h (2 Bft) SO 135 60 min 7,4 C 14,3 C 8,9 km/h (2 Bft)
19.10.2019 16:10 15,2 C 14,1 C 0,0 C 15,8 C 15,8 C 10,0 C 59 % 57 % 0 % 100 % 1013,5 hPa 0,0 l/m 9,7 km/h (2 Bft) S-SW 202 60 min 7,2 C 15,2 C 9,1 km/h (2 Bft)
19.10.2019 15:10 15,5 C 14,3 C 0,0 C 16,3 C 16,3 C 9,1 C 59 % 57 % 0 % 100 % 1013,0 hPa 0,0 l/m 6,2 km/h (2 Bft) S 180 60 min 7,5 C 15,5 C 11,8 km/h (2 Bft)
19.10.2019 14:10 15,5 C 14,3 C 0,0 C 16,1 C 16,1 C 8,9 C 62 % 59 % 0 % 100 % 1013,2 hPa 0,0 l/m 5,2 km/h (1 Bft) S 180 60 min 8,3 C 15,5 C 4,6 km/h (1 Bft)
19.10.2019 13:10 15,5 C 14,5 C 0,0 C 17,2 C 17,2 C 8,9 C 65 % 62 % 0 % 100 % 1013,5 hPa 0,0 l/m 3,3 km/h (1 Bft) S 180 60 min 8,9 C 15,5 C 7,7 km/h (2 Bft)
19.10.2019 12:10 14,5 C 12,9 C 0,0 C 18,1 C 18,1 C 9,8 C 71 % 69 % 0 % 100 % 1014,1 hPa 0,0 l/m 7,0 km/h (2 Bft) SO 135 60 min 9,3 C 14,5 C 9,5 km/h (2 Bft)
19.10.2019 11:10 12,4 C 12,8 C 0,0 C 13,4 C 13,4 C 11,8 C 75 % 75 % 0 % 100 % 1013,6 hPa 0,0 l/m 8,1 km/h (2 Bft) S 180 60 min 8,1 C 12,4 C 12,2 km/h (2 Bft)
19.10.2019 10:10 11,4 C 12,2 C 0,0 C 12,7 C 12,7 C 12,8 C 80 % 80 % 0 % 100 % 1013,7 hPa 0,0 l/m 1,7 km/h (1 Bft) W-SW 247 60 min 8,1 C 11,4 C 3,7 km/h (1 Bft)
19.10.2019 09:10 10,3 C 11,0 C 0,0 C 10,5 C 10,5 C 13,8 C 81 % 83 % 0 % 100 % 1014,1 hPa 0,0 l/m 1,2 km/h (1 Bft) SO 135 60 min 7,2 C 10,3 C 3,7 km/h (1 Bft)
19.10.2019 08:10 9,7 C 10,2 C 0,0 C 9,8 C 9,5 C 14,5 C 82 % 84 % 0 % 100 % 1014,1 hPa 0,8 l/m 1,2 km/h (1 Bft) N 360 30 min 6,8 C 9,7 C 3,5 km/h (1 Bft)
19.10.2019 07:10 9,4 C 9,7 C 0,0 C 9,5 C 9,3 C 14,8 C 81 % 84 % 0 % 0 % 1014,2 hPa 0,0 l/m 0,4 km/h (0 Bft) SO 135 0 min 6,3 C 9,4 C 0,0 km/h (0 Bft)
19.10.2019 06:10 8,8 C 9,5 C 0,0 C 8,9 C 8,8 C 15,4 C 82 % 84 % 0 % 0 % 1014,2 hPa 0,0 l/m 0,6 km/h (0 Bft) O-NO 67 0 min 5,9 C 8,8 C 1,9 km/h (1 Bft)
19.10.2019 05:10 8,2 C 8,2 C 0,0 C 8,6 C 8,6 C 16,2 C 80 % 83 % 0 % 0 % 1014,4 hPa 0,0 l/m 0,0 km/h (0 Bft) O-NO 67 0 min 5,0 C 8,2 C 0,0 km/h (0 Bft)
19.10.2019 05:00 8,2 C 7,9 C 0,0 C 8,7 C 8,7 C 16,2 C 80 % 83 % 0 % 0 % 1014,4 hPa 0,0 l/m 1,0 km/h (0 Bft) NW 315 0 min 5,0 C 8,2 C 0,0 km/h (0 Bft)
_ Min-Zeit 05:00 05:00 05:00 05:08 05:08 13:20 14:26 15:10 05:00 05:00 20:38 - 05:06 - - - 05:00 05:00 05:00
Minimum _ 8,2 C 7,9 C 0,0 C 8,6 C 8,6 C 8,7 C 59 % 57 % 0 % 0 % 1012,3 hPa - 0,0 km/h (0 Bft) - - - 5,0 C 8,2 C 0,0 km/h (0 Bft)
_ Max-Zeit 13:20 13:16 05:00 11:50 11:50 05:00 05:54 05:14 05:00 07:42 05:18 07:24 16:06 - - 07:42 11:34 13:20 18:16
Maximum _ 15,7 C 14,7 C 0,0 C 19,1 C 19,1 C 16,2 C 82 % 84 % 0 % 100 % 1014,6 hPa 0,8 l/m 11,0 km/h
S (2 Bft)
- - 2 min 9,4 C 15,7 C 21,4 km/h
SW (4 Bft)
Durchschnitt _ 11,8 C 11,1 C 0,0 C 12,2 C 12,0 C 13,2 C 74 % 74 % 0 % 40 % 1013,4 hPa #0,8 l/m 3,8 km/h (1 Bft) S - #0 min. 7,2 C 11,8 C 6,2 km/h (2 Bft)
© 2019 Udo Grun